sensor_id;sensor_type;location;lat;lon;timestamp;P1;durP1;ratioP1;P2;durP2;ratioP2
12660;SDS011;39039;51.802;5.710;2022-11-20T00:01:03;19.13;;;9.30;;
12660;SDS011;39039;51.802;5.710;2022-11-20T00:03:30;17.63;;;9.10;;
12660;SDS011;39039;51.802;5.710;2022-11-20T00:05:59;18.53;;;8.83;;
12660;SDS011;39039;51.802;5.710;2022-11-20T00:08:26;17.63;;;9.00;;
12660;SDS011;39039;51.802;5.710;2022-11-20T00:10:53;17.63;;;8.43;;
12660;SDS011;39039;51.802;5.710;2022-11-20T00:13:21;19.30;;;9.10;;
12660;SDS011;39039;51.802;5.710;2022-11-20T00:15:56;17.83;;;8.47;;
12660;SDS011;39039;51.802;5.710;2022-11-20T00:18:23;18.03;;;9.00;;
12660;SDS011;39039;51.802;5.710;2022-11-20T00:20:50;16.93;;;8.83;;
12660;SDS011;39039;51.802;5.710;2022-11-20T00:23:17;19.13;;;8.73;;
12660;SDS011;39039;51.802;5.710;2022-11-20T00:25:44;16.63;;;8.70;;
12660;SDS011;39039;51.802;5.710;2022-11-20T00:28:11;22.80;;;9.07;;
12660;SDS011;39039;51.802;5.710;2022-11-20T00:30:39;18.80;;;8.77;;
12660;SDS011;39039;51.802;5.710;2022-11-20T00:33:06;21.23;;;10.07;;
12660;SDS011;39039;51.802;5.710;2022-11-20T00:35:33;19.80;;;9.37;;
12660;SDS011;39039;51.802;5.710;2022-11-20T00:38:00;17.60;;;9.07;;
12660;SDS011;39039;51.802;5.710;2022-11-20T00:40:27;17.87;;;8.93;;
12660;SDS011;39039;51.802;5.710;2022-11-20T00:42:54;20.20;;;9.37;;
12660;SDS011;39039;51.802;5.710;2022-11-20T00:45:21;18.10;;;9.20;;
12660;SDS011;39039;51.802;5.710;2022-11-20T00:47:49;17.03;;;8.90;;
12660;SDS011;39039;51.802;5.710;2022-11-20T00:50:16;16.27;;;9.00;;
12660;SDS011;39039;51.802;5.710;2022-11-20T00:52:43;18.57;;;8.50;;
12660;SDS011;39039;51.802;5.710;2022-11-20T00:55:10;17.67;;;9.30;;
12660;SDS011;39039;51.802;5.710;2022-11-20T00:57:37;18.93;;;8.73;;
12660;SDS011;39039;51.802;5.710;2022-11-20T01:00:05;18.53;;;9.30;;
12660;SDS011;39039;51.802;5.710;2022-11-20T01:02:33;19.60;;;9.40;;
12660;SDS011;39039;51.802;5.710;2022-11-20T01:05:01;16.73;;;9.27;;
12660;SDS011;39039;51.802;5.710;2022-11-20T01:07:28;19.53;;;9.60;;
12660;SDS011;39039;51.802;5.710;2022-11-20T01:09:55;18.73;;;9.27;;
12660;SDS011;39039;51.802;5.710;2022-11-20T01:12:22;17.30;;;9.33;;
12660;SDS011;39039;51.802;5.710;2022-11-20T01:14:51;14.67;;;8.60;;
12660;SDS011;39039;51.802;5.710;2022-11-20T01:17:24;17.23;;;9.10;;
12660;SDS011;39039;51.802;5.710;2022-11-20T01:19:51;17.70;;;8.50;;
12660;SDS011;39039;51.802;5.710;2022-11-20T01:22:20;19.17;;;8.73;;
12660;SDS011;39039;51.802;5.710;2022-11-20T01:24:47;19.67;;;10.00;;
12660;SDS011;39039;51.802;5.710;2022-11-20T01:27:14;18.07;;;8.97;;
12660;SDS011;39039;51.802;5.710;2022-11-20T01:29:41;18.77;;;9.23;;
12660;SDS011;39039;51.802;5.710;2022-11-20T01:32:08;19.23;;;10.00;;
12660;SDS011;39039;51.802;5.710;2022-11-20T01:34:35;15.63;;;8.43;;
12660;SDS011;39039;51.802;5.710;2022-11-20T01:37:02;18.93;;;9.33;;
12660;SDS011;39039;51.802;5.710;2022-11-20T01:39:31;22.20;;;10.57;;
12660;SDS011;39039;51.802;5.710;2022-11-20T01:41:58;20.23;;;9.47;;
12660;SDS011;39039;51.802;5.710;2022-11-20T01:44:45;19.60;;;9.77;;
12660;SDS011;39039;51.802;5.710;2022-11-20T01:47:14;21.40;;;9.40;;
12660;SDS011;39039;51.802;5.710;2022-11-20T01:49:44;20.43;;;8.87;;
12660;SDS011;39039;51.802;5.710;2022-11-20T01:52:15;20.93;;;9.10;;
12660;SDS011;39039;51.802;5.710;2022-11-20T01:54:46;22.73;;;10.90;;
12660;SDS011;39039;51.802;5.710;2022-11-20T01:57:14;16.73;;;9.30;;
12660;SDS011;39039;51.802;5.710;2022-11-20T01:59:43;18.90;;;9.90;;
12660;SDS011;39039;51.802;5.710;2022-11-20T02:02:11;19.13;;;9.83;;
12660;SDS011;39039;51.802;5.710;2022-11-20T02:04:38;16.43;;;9.53;;
12660;SDS011;39039;51.802;5.710;2022-11-20T02:07:05;18.60;;;9.27;;
12660;SDS011;39039;51.802;5.710;2022-11-20T02:09:32;17.33;;;9.67;;
12660;SDS011;39039;51.802;5.710;2022-11-20T02:12:00;18.20;;;9.43;;
12660;SDS011;39039;51.802;5.710;2022-11-20T02:14:27;20.20;;;10.13;;
12660;SDS011;39039;51.802;5.710;2022-11-20T02:16:53;20.07;;;9.77;;
12660;SDS011;39039;51.802;5.710;2022-11-20T02:19:22;18.33;;;9.67;;
12660;SDS011;39039;51.802;5.710;2022-11-20T02:21:52;19.67;;;9.47;;
12660;SDS011;39039;51.802;5.710;2022-11-20T02:24:23;22.47;;;9.43;;
12660;SDS011;39039;51.802;5.710;2022-11-20T02:26:50;17.77;;;10.10;;
12660;SDS011;39039;51.802;5.710;2022-11-20T02:29:19;18.80;;;9.53;;
12660;SDS011;39039;51.802;5.710;2022-11-20T02:31:49;19.03;;;9.27;;
12660;SDS011;39039;51.802;5.710;2022-11-20T02:34:17;21.30;;;10.03;;
12660;SDS011;39039;51.802;5.710;2022-11-20T02:36:44;23.67;;;11.23;;
12660;SDS011;39039;51.802;5.710;2022-11-20T02:39:11;18.73;;;10.30;;
12660;SDS011;39039;51.802;5.710;2022-11-20T02:41:43;19.30;;;9.53;;
12660;SDS011;39039;51.802;5.710;2022-11-20T02:44:10;19.30;;;9.50;;
12660;SDS011;39039;51.802;5.710;2022-11-20T02:46:37;17.83;;;9.67;;
12660;SDS011;39039;51.802;5.710;2022-11-20T02:49:04;17.57;;;9.73;;
12660;SDS011;39039;51.802;5.710;2022-11-20T02:51:31;24.77;;;10.43;;
12660;SDS011;39039;51.802;5.710;2022-11-20T02:53:58;23.27;;;10.67;;
12660;SDS011;39039;51.802;5.710;2022-11-20T02:56:25;21.97;;;9.73;;
12660;SDS011;39039;51.802;5.710;2022-11-20T02:58:54;18.77;;;9.90;;
12660;SDS011;39039;51.802;5.710;2022-11-20T03:01:21;19.00;;;10.20;;
12660;SDS011;39039;51.802;5.710;2022-11-20T03:03:48;18.23;;;8.47;;
12660;SDS011;39039;51.802;5.710;2022-11-20T03:06:18;20.07;;;9.80;;
12660;SDS011;39039;51.802;5.710;2022-11-20T03:08:45;21.40;;;9.20;;
12660;SDS011;39039;51.802;5.710;2022-11-20T03:11:12;20.33;;;10.07;;
12660;SDS011;39039;51.802;5.710;2022-11-20T03:13:39;18.33;;;9.33;;
12660;SDS011;39039;51.802;5.710;2022-11-20T03:16:08;23.20;;;10.67;;
12660;SDS011;39039;51.802;5.710;2022-11-20T03:18:38;22.17;;;10.83;;
12660;SDS011;39039;51.802;5.710;2022-11-20T03:21:06;23.03;;;10.20;;
12660;SDS011;39039;51.802;5.710;2022-11-20T03:23:34;17.10;;;9.13;;
12660;SDS011;39039;51.802;5.710;2022-11-20T03:26:08;20.37;;;10.83;;
12660;SDS011;39039;51.802;5.710;2022-11-20T03:28:35;22.47;;;10.47;;
12660;SDS011;39039;51.802;5.710;2022-11-20T03:31:07;20.63;;;10.13;;
12660;SDS011;39039;51.802;5.710;2022-11-20T03:33:40;18.20;;;9.00;;
12660;SDS011;39039;51.802;5.710;2022-11-20T03:36:08;19.67;;;9.73;;
12660;SDS011;39039;51.802;5.710;2022-11-20T03:38:36;19.70;;;10.37;;
12660;SDS011;39039;51.802;5.710;2022-11-20T03:41:05;21.20;;;9.97;;
12660;SDS011;39039;51.802;5.710;2022-11-20T03:43:33;18.03;;;9.80;;
12660;SDS011;39039;51.802;5.710;2022-11-20T03:46:00;18.87;;;10.23;;
12660;SDS011;39039;51.802;5.710;2022-11-20T03:48:28;19.47;;;9.73;;
12660;SDS011;39039;51.802;5.710;2022-11-20T03:51:06;20.93;;;10.23;;
12660;SDS011;39039;51.802;5.710;2022-11-20T03:53:33;20.93;;;10.03;;
12660;SDS011;39039;51.802;5.710;2022-11-20T03:56:00;18.57;;;9.20;;
12660;SDS011;39039;51.802;5.710;2022-11-20T03:58:27;22.83;;;10.97;;
12660;SDS011;39039;51.802;5.710;2022-11-20T04:00:54;19.90;;;10.20;;
12660;SDS011;39039;51.802;5.710;2022-11-20T04:03:21;20.67;;;9.53;;
12660;SDS011;39039;51.802;5.710;2022-11-20T04:05:52;18.90;;;9.53;;
12660;SDS011;39039;51.802;5.710;2022-11-20T04:08:19;22.47;;;10.60;;
12660;SDS011;39039;51.802;5.710;2022-11-20T04:10:48;16.97;;;9.80;;
12660;SDS011;39039;51.802;5.710;2022-11-20T04:13:29;20.13;;;10.17;;
12660;SDS011;39039;51.802;5.710;2022-11-20T04:15:56;21.10;;;10.53;;
12660;SDS011;39039;51.802;5.710;2022-11-20T04:18:23;21.23;;;9.53;;
12660;SDS011;39039;51.802;5.710;2022-11-20T04:20:50;21.67;;;10.57;;
12660;SDS011;39039;51.802;5.710;2022-11-20T04:23:18;21.27;;;10.37;;
12660;SDS011;39039;51.802;5.710;2022-11-20T04:25:45;18.20;;;9.30;;
12660;SDS011;39039;51.802;5.710;2022-11-20T04:28:12;19.47;;;10.33;;
12660;SDS011;39039;51.802;5.710;2022-11-20T04:30:39;20.90;;;11.23;;
12660;SDS011;39039;51.802;5.710;2022-11-20T04:33:06;18.90;;;9.57;;
12660;SDS011;39039;51.802;5.710;2022-11-20T04:35:35;18.50;;;9.73;;
12660;SDS011;39039;51.802;5.710;2022-11-20T04:38:02;23.33;;;9.53;;
12660;SDS011;39039;51.802;5.710;2022-11-20T04:40:31;17.27;;;9.63;;
12660;SDS011;39039;51.802;5.710;2022-11-20T04:43:00;18.23;;;9.33;;
12660;SDS011;39039;51.802;5.710;2022-11-20T04:45:27;22.87;;;10.07;;
12660;SDS011;39039;51.802;5.710;2022-11-20T04:47:54;19.53;;;9.30;;
12660;SDS011;39039;51.802;5.710;2022-11-20T04:50:21;18.80;;;9.30;;
12660;SDS011;39039;51.802;5.710;2022-11-20T04:52:48;21.07;;;10.47;;
12660;SDS011;39039;51.802;5.710;2022-11-20T04:55:18;22.70;;;8.90;;
12660;SDS011;39039;51.802;5.710;2022-11-20T04:57:46;19.53;;;10.20;;
12660;SDS011;39039;51.802;5.710;2022-11-20T05:00:16;16.83;;;8.40;;
12660;SDS011;39039;51.802;5.710;2022-11-20T05:02:43;19.83;;;9.97;;
12660;SDS011;39039;51.802;5.710;2022-11-20T05:05:17;16.90;;;9.47;;
12660;SDS011;39039;51.802;5.710;2022-11-20T05:07:44;19.17;;;9.57;;
12660;SDS011;39039;51.802;5.710;2022-11-20T05:10:20;19.40;;;10.00;;
12660;SDS011;39039;51.802;5.710;2022-11-20T05:12:48;21.37;;;10.07;;
12660;SDS011;39039;51.802;5.710;2022-11-20T05:15:15;19.30;;;9.23;;
12660;SDS011;39039;51.802;5.710;2022-11-20T05:17:46;17.67;;;9.23;;
12660;SDS011;39039;51.802;5.710;2022-11-20T05:20:13;17.57;;;8.97;;
12660;SDS011;39039;51.802;5.710;2022-11-20T05:22:43;20.87;;;9.43;;
12660;SDS011;39039;51.802;5.710;2022-11-20T05:25:13;19.83;;;9.63;;
12660;SDS011;39039;51.802;5.710;2022-11-20T05:27:40;17.43;;;9.67;;
12660;SDS011;39039;51.802;5.710;2022-11-20T05:30:09;19.30;;;8.80;;
12660;SDS011;39039;51.802;5.710;2022-11-20T05:32:37;19.83;;;9.27;;
12660;SDS011;39039;51.802;5.710;2022-11-20T05:35:04;19.77;;;9.13;;
12660;SDS011;39039;51.802;5.710;2022-11-20T05:37:33;20.53;;;9.53;;
12660;SDS011;39039;51.802;5.710;2022-11-20T05:40:04;20.07;;;9.50;;
12660;SDS011;39039;51.802;5.710;2022-11-20T05:42:31;19.20;;;9.77;;
12660;SDS011;39039;51.802;5.710;2022-11-20T05:44:58;22.77;;;9.67;;
12660;SDS011;39039;51.802;5.710;2022-11-20T05:47:27;22.20;;;11.03;;
12660;SDS011;39039;51.802;5.710;2022-11-20T05:49:55;21.10;;;9.67;;
12660;SDS011;39039;51.802;5.710;2022-11-20T05:52:22;22.47;;;9.43;;
12660;SDS011;39039;51.802;5.710;2022-11-20T05:54:49;19.20;;;9.80;;
12660;SDS011;39039;51.802;5.710;2022-11-20T05:57:16;21.20;;;9.53;;
12660;SDS011;39039;51.802;5.710;2022-11-20T05:59:43;18.47;;;9.50;;
12660;SDS011;39039;51.802;5.710;2022-11-20T06:02:10;19.53;;;9.70;;
12660;SDS011;39039;51.802;5.710;2022-11-20T06:04:38;19.83;;;9.40;;
12660;SDS011;39039;51.802;5.710;2022-11-20T06:07:07;18.07;;;9.00;;
12660;SDS011;39039;51.802;5.710;2022-11-20T06:09:35;18.73;;;9.67;;
12660;SDS011;39039;51.802;5.710;2022-11-20T06:12:02;19.83;;;9.27;;
12660;SDS011;39039;51.802;5.710;2022-11-20T06:14:31;22.37;;;10.30;;
12660;SDS011;39039;51.802;5.710;2022-11-20T06:16:59;25.37;;;10.07;;
12660;SDS011;39039;51.802;5.710;2022-11-20T06:19:26;18.63;;;10.60;;
12660;SDS011;39039;51.802;5.710;2022-11-20T06:22:02;23.37;;;9.10;;
12660;SDS011;39039;51.802;5.710;2022-11-20T06:24:29;16.90;;;8.93;;
12660;SDS011;39039;51.802;5.710;2022-11-20T06:26:56;19.03;;;9.37;;
12660;SDS011;39039;51.802;5.710;2022-11-20T06:29:23;22.37;;;10.13;;
12660;SDS011;39039;51.802;5.710;2022-11-20T06:31:50;16.97;;;9.53;;
12660;SDS011;39039;51.802;5.710;2022-11-20T06:34:17;21.50;;;10.17;;
12660;SDS011;39039;51.802;5.710;2022-11-20T06:36:44;21.03;;;9.83;;
12660;SDS011;39039;51.802;5.710;2022-11-20T06:39:15;19.73;;;9.93;;
12660;SDS011;39039;51.802;5.710;2022-11-20T06:41:42;18.43;;;9.90;;
12660;SDS011;39039;51.802;5.710;2022-11-20T06:44:09;23.00;;;10.17;;
12660;SDS011;39039;51.802;5.710;2022-11-20T06:46:36;20.43;;;10.60;;
12660;SDS011;39039;51.802;5.710;2022-11-20T06:49:10;22.60;;;10.70;;
12660;SDS011;39039;51.802;5.710;2022-11-20T06:51:37;22.93;;;10.37;;
12660;SDS011;39039;51.802;5.710;2022-11-20T06:54:06;18.73;;;10.27;;
12660;SDS011;39039;51.802;5.710;2022-11-20T06:56:35;23.77;;;9.30;;
12660;SDS011;39039;51.802;5.710;2022-11-20T06:59:03;20.37;;;9.13;;
12660;SDS011;39039;51.802;5.710;2022-11-20T07:01:30;20.37;;;9.80;;
12660;SDS011;39039;51.802;5.710;2022-11-20T07:03:57;20.63;;;9.90;;
12660;SDS011;39039;51.802;5.710;2022-11-20T07:06:24;24.50;;;10.67;;
12660;SDS011;39039;51.802;5.710;2022-11-20T07:08:51;19.60;;;9.80;;
12660;SDS011;39039;51.802;5.710;2022-11-20T07:11:18;18.70;;;9.83;;
12660;SDS011;39039;51.802;5.710;2022-11-20T07:13:48;20.30;;;10.00;;
12660;SDS011;39039;51.802;5.710;2022-11-20T07:16:17;21.23;;;10.67;;
12660;SDS011;39039;51.802;5.710;2022-11-20T07:18:52;23.27;;;10.03;;
12660;SDS011;39039;51.802;5.710;2022-11-20T07:21:19;26.97;;;11.03;;
12660;SDS011;39039;51.802;5.710;2022-11-20T07:23:48;19.73;;;10.97;;
12660;SDS011;39039;51.802;5.710;2022-11-20T07:26:15;20.97;;;10.63;;
12660;SDS011;39039;51.802;5.710;2022-11-20T07:28:43;21.73;;;10.80;;
12660;SDS011;39039;51.802;5.710;2022-11-20T07:31:12;23.63;;;10.93;;
12660;SDS011;39039;51.802;5.710;2022-11-20T07:33:39;23.50;;;10.70;;
12660;SDS011;39039;51.802;5.710;2022-11-20T07:36:07;23.17;;;10.97;;
12660;SDS011;39039;51.802;5.710;2022-11-20T07:38:34;22.57;;;11.47;;
12660;SDS011;39039;51.802;5.710;2022-11-20T07:41:01;20.20;;;10.50;;
12660;SDS011;39039;51.802;5.710;2022-11-20T07:43:28;25.20;;;11.80;;
12660;SDS011;39039;51.802;5.710;2022-11-20T07:45:55;22.73;;;11.07;;
12660;SDS011;39039;51.802;5.710;2022-11-20T07:48:24;23.73;;;11.90;;
12660;SDS011;39039;51.802;5.710;2022-11-20T07:50:53;26.27;;;12.53;;
12660;SDS011;39039;51.802;5.710;2022-11-20T07:53:20;23.53;;;12.57;;
12660;SDS011;39039;51.802;5.710;2022-11-20T07:55:46;25.93;;;11.43;;
12660;SDS011;39039;51.802;5.710;2022-11-20T07:58:14;25.20;;;12.00;;
12660;SDS011;39039;51.802;5.710;2022-11-20T08:00:41;24.27;;;12.10;;
12660;SDS011;39039;51.802;5.710;2022-11-20T08:03:08;21.03;;;11.57;;
12660;SDS011;39039;51.802;5.710;2022-11-20T08:05:36;27.93;;;13.23;;
12660;SDS011;39039;51.802;5.710;2022-11-20T08:08:03;24.10;;;12.13;;
12660;SDS011;39039;51.802;5.710;2022-11-20T08:10:31;24.03;;;12.50;;
12660;SDS011;39039;51.802;5.710;2022-11-20T08:12:58;23.87;;;12.03;;
12660;SDS011;39039;51.802;5.710;2022-11-20T08:15:47;22.10;;;11.87;;
12660;SDS011;39039;51.802;5.710;2022-11-20T08:18:15;24.67;;;12.13;;
12660;SDS011;39039;51.802;5.710;2022-11-20T08:20:43;21.40;;;12.47;;
12660;SDS011;39039;51.802;5.710;2022-11-20T08:23:10;25.33;;;12.67;;
12660;SDS011;39039;51.802;5.710;2022-11-20T08:25:38;23.60;;;12.20;;
12660;SDS011;39039;51.802;5.710;2022-11-20T08:28:05;29.13;;;13.30;;
12660;SDS011;39039;51.802;5.710;2022-11-20T08:30:33;27.83;;;13.90;;
12660;SDS011;39039;51.802;5.710;2022-11-20T08:33:03;24.33;;;12.37;;
12660;SDS011;39039;51.802;5.710;2022-11-20T08:35:32;22.63;;;12.73;;
12660;SDS011;39039;51.802;5.710;2022-11-20T08:38:01;27.03;;;14.07;;
12660;SDS011;39039;51.802;5.710;2022-11-20T08:40:28;22.73;;;12.67;;
12660;SDS011;39039;51.802;5.710;2022-11-20T08:42:55;25.30;;;13.23;;
12660;SDS011;39039;51.802;5.710;2022-11-20T08:45:22;21.97;;;11.20;;
12660;SDS011;39039;51.802;5.710;2022-11-20T08:47:49;26.00;;;12.60;;
12660;SDS011;39039;51.802;5.710;2022-11-20T08:50:17;22.70;;;12.67;;
12660;SDS011;39039;51.802;5.710;2022-11-20T08:52:44;25.67;;;13.17;;
12660;SDS011;39039;51.802;5.710;2022-11-20T08:55:17;23.20;;;12.87;;
12660;SDS011;39039;51.802;5.710;2022-11-20T08:57:44;22.60;;;12.47;;
12660;SDS011;39039;51.802;5.710;2022-11-20T09:00:11;24.57;;;13.13;;
12660;SDS011;39039;51.802;5.710;2022-11-20T09:02:38;22.37;;;11.50;;
12660;SDS011;39039;51.802;5.710;2022-11-20T09:05:05;24.80;;;12.87;;
12660;SDS011;39039;51.802;5.710;2022-11-20T09:07:33;23.80;;;11.67;;
12660;SDS011;39039;51.802;5.710;2022-11-20T09:10:00;23.57;;;12.50;;
12660;SDS011;39039;51.802;5.710;2022-11-20T09:12:30;27.43;;;12.03;;
12660;SDS011;39039;51.802;5.710;2022-11-20T09:14:57;24.50;;;13.13;;
12660;SDS011;39039;51.802;5.710;2022-11-20T09:17:23;23.53;;;11.70;;
12660;SDS011;39039;51.802;5.710;2022-11-20T09:19:51;21.57;;;12.37;;
12660;SDS011;39039;51.802;5.710;2022-11-20T09:22:18;25.93;;;13.27;;
12660;SDS011;39039;51.802;5.710;2022-11-20T09:24:45;26.27;;;13.60;;
12660;SDS011;39039;51.802;5.710;2022-11-20T09:27:12;26.53;;;13.33;;
12660;SDS011;39039;51.802;5.710;2022-11-20T09:29:40;23.27;;;12.60;;
12660;SDS011;39039;51.802;5.710;2022-11-20T09:32:07;27.73;;;13.43;;
12660;SDS011;39039;51.802;5.710;2022-11-20T09:34:34;26.17;;;12.73;;
12660;SDS011;39039;51.802;5.710;2022-11-20T09:37:01;25.43;;;13.23;;
12660;SDS011;39039;51.802;5.710;2022-11-20T09:39:28;25.73;;;13.63;;
12660;SDS011;39039;51.802;5.710;2022-11-20T09:42:04;24.80;;;12.87;;
12660;SDS011;39039;51.802;5.710;2022-11-20T09:44:43;26.07;;;14.47;;
12660;SDS011;39039;51.802;5.710;2022-11-20T09:47:20;25.63;;;13.27;;
12660;SDS011;39039;51.802;5.710;2022-11-20T09:49:55;26.50;;;13.30;;
12660;SDS011;39039;51.802;5.710;2022-11-20T09:52:26;31.30;;;15.00;;
12660;SDS011;39039;51.802;5.710;2022-11-20T09:54:58;28.30;;;14.77;;
12660;SDS011;39039;51.802;5.710;2022-11-20T09:57:29;28.13;;;13.80;;
12660;SDS011;39039;51.802;5.710;2022-11-20T10:00:00;26.27;;;12.57;;
12660;SDS011;39039;51.802;5.710;2022-11-20T10:02:27;24.97;;;13.80;;
12660;SDS011;39039;51.802;5.710;2022-11-20T10:04:57;27.17;;;13.70;;
12660;SDS011;39039;51.802;5.710;2022-11-20T10:07:27;24.27;;;13.90;;
12660;SDS011;39039;51.802;5.710;2022-11-20T10:09:59;25.73;;;14.63;;
12660;SDS011;39039;51.802;5.710;2022-11-20T10:12:31;26.77;;;13.63;;
12660;SDS011;39039;51.802;5.710;2022-11-20T10:15:06;26.27;;;13.43;;
12660;SDS011;39039;51.802;5.710;2022-11-20T10:17:46;23.97;;;12.80;;
12660;SDS011;39039;51.802;5.710;2022-11-20T10:20:19;23.57;;;13.33;;
12660;SDS011;39039;51.802;5.710;2022-11-20T10:22:51;30.27;;;14.60;;
12660;SDS011;39039;51.802;5.710;2022-11-20T10:25:29;24.33;;;13.37;;
12660;SDS011;39039;51.802;5.710;2022-11-20T10:28:10;29.70;;;14.80;;
12660;SDS011;39039;51.802;5.710;2022-11-20T10:30:43;27.03;;;15.23;;
12660;SDS011;39039;51.802;5.710;2022-11-20T10:33:12;30.53;;;14.90;;
12660;SDS011;39039;51.802;5.710;2022-11-20T10:35:45;26.40;;;13.93;;
12660;SDS011;39039;51.802;5.710;2022-11-20T10:38:19;23.97;;;13.83;;
12660;SDS011;39039;51.802;5.710;2022-11-20T10:40:48;26.27;;;14.37;;
12660;SDS011;39039;51.802;5.710;2022-11-20T10:43:16;27.37;;;15.43;;
12660;SDS011;39039;51.802;5.710;2022-11-20T10:45:49;27.27;;;13.57;;
12660;SDS011;39039;51.802;5.710;2022-11-20T10:48:20;28.87;;;14.83;;
12660;SDS011;39039;51.802;5.710;2022-11-20T10:50:50;26.57;;;14.53;;
12660;SDS011;39039;51.802;5.710;2022-11-20T10:53:33;23.23;;;12.67;;
12660;SDS011;39039;51.802;5.710;2022-11-20T10:56:07;23.90;;;13.50;;
12660;SDS011;39039;51.802;5.710;2022-11-20T10:58:37;24.17;;;13.00;;
12660;SDS011;39039;51.802;5.710;2022-11-20T11:01:14;23.77;;;14.30;;
12660;SDS011;39039;51.802;5.710;2022-11-20T11:03:41;28.83;;;14.57;;
12660;SDS011;39039;51.802;5.710;2022-11-20T11:06:10;25.40;;;13.60;;
12660;SDS011;39039;51.802;5.710;2022-11-20T11:08:39;23.87;;;13.57;;
12660;SDS011;39039;51.802;5.710;2022-11-20T11:11:10;25.97;;;13.50;;
12660;SDS011;39039;51.802;5.710;2022-11-20T11:13:44;28.43;;;14.40;;
12660;SDS011;39039;51.802;5.710;2022-11-20T11:16:17;25.57;;;13.70;;
12660;SDS011;39039;51.802;5.710;2022-11-20T11:18:47;26.87;;;13.93;;
12660;SDS011;39039;51.802;5.710;2022-11-20T11:21:19;31.40;;;14.50;;
12660;SDS011;39039;51.802;5.710;2022-11-20T11:23:48;28.63;;;14.93;;
12660;SDS011;39039;51.802;5.710;2022-11-20T11:26:23;28.00;;;15.00;;
12660;SDS011;39039;51.802;5.710;2022-11-20T11:28:54;25.30;;;13.87;;
12660;SDS011;39039;51.802;5.710;2022-11-20T11:31:24;27.67;;;14.20;;
12660;SDS011;39039;51.802;5.710;2022-11-20T11:33:51;25.10;;;13.77;;
12660;SDS011;39039;51.802;5.710;2022-11-20T11:36:19;30.83;;;15.30;;
12660;SDS011;39039;51.802;5.710;2022-11-20T11:38:52;26.53;;;14.43;;
12660;SDS011;39039;51.802;5.710;2022-11-20T11:41:20;30.63;;;14.93;;
12660;SDS011;39039;51.802;5.710;2022-11-20T11:43:50;25.57;;;14.77;;
12660;SDS011;39039;51.802;5.710;2022-11-20T11:46:36;27.53;;;14.33;;
12660;SDS011;39039;51.802;5.710;2022-11-20T11:49:11;26.67;;;13.97;;
12660;SDS011;39039;51.802;5.710;2022-11-20T11:51:41;25.90;;;13.60;;
12660;SDS011;39039;51.802;5.710;2022-11-20T11:54:14;25.77;;;13.00;;
12660;SDS011;39039;51.802;5.710;2022-11-20T11:56:43;26.50;;;14.33;;
12660;SDS011;39039;51.802;5.710;2022-11-20T11:59:12;26.93;;;14.43;;
12660;SDS011;39039;51.802;5.710;2022-11-20T12:01:42;27.43;;;14.87;;
12660;SDS011;39039;51.802;5.710;2022-11-20T12:04:14;32.47;;;15.77;;
12660;SDS011;39039;51.802;5.710;2022-11-20T12:06:43;36.60;;;16.80;;
12660;SDS011;39039;51.802;5.710;2022-11-20T12:09:12;33.87;;;16.70;;
12660;SDS011;39039;51.802;5.710;2022-11-20T12:11:42;31.00;;;16.23;;
12660;SDS011;39039;51.802;5.710;2022-11-20T12:14:11;30.90;;;16.53;;
12660;SDS011;39039;51.802;5.710;2022-11-20T12:16:42;43.63;;;19.00;;
12660;SDS011;39039;51.802;5.710;2022-11-20T12:19:10;37.17;;;18.03;;
12660;SDS011;39039;51.802;5.710;2022-11-20T12:21:42;38.83;;;19.47;;
12660;SDS011;39039;51.802;5.710;2022-11-20T12:24:27;42.97;;;20.10;;
12660;SDS011;39039;51.802;5.710;2022-11-20T12:27:00;44.63;;;19.17;;
12660;SDS011;39039;51.802;5.710;2022-11-20T12:29:32;43.93;;;19.00;;
12660;SDS011;39039;51.802;5.710;2022-11-20T12:32:06;38.00;;;19.00;;
12660;SDS011;39039;51.802;5.710;2022-11-20T12:34:47;45.23;;;19.37;;
12660;SDS011;39039;51.802;5.710;2022-11-20T12:37:17;40.70;;;18.73;;
12660;SDS011;39039;51.802;5.710;2022-11-20T12:39:48;42.33;;;20.50;;
12660;SDS011;39039;51.802;5.710;2022-11-20T12:42:24;41.17;;;19.00;;
12660;SDS011;39039;51.802;5.710;2022-11-20T12:45:18;41.80;;;18.40;;
12660;SDS011;39039;51.802;5.710;2022-11-20T12:47:59;37.63;;;18.17;;
12660;SDS011;39039;51.802;5.710;2022-11-20T12:50:32;41.80;;;19.23;;
12660;SDS011;39039;51.802;5.710;2022-11-20T12:53:04;43.07;;;19.13;;
12660;SDS011;39039;51.802;5.710;2022-11-20T12:55:36;42.47;;;18.93;;
12660;SDS011;39039;51.802;5.710;2022-11-20T12:58:20;42.17;;;19.57;;
12660;SDS011;39039;51.802;5.710;2022-11-20T13:00:52;44.80;;;20.27;;
12660;SDS011;39039;51.802;5.710;2022-11-20T13:03:38;45.13;;;19.10;;
12660;SDS011;39039;51.802;5.710;2022-11-20T13:06:10;37.47;;;19.00;;
12660;SDS011;39039;51.802;5.710;2022-11-20T13:08:39;40.93;;;18.83;;
12660;SDS011;39039;51.802;5.710;2022-11-20T13:11:11;39.03;;;19.40;;
12660;SDS011;39039;51.802;5.710;2022-11-20T13:13:43;37.43;;;17.93;;
12660;SDS011;39039;51.802;5.710;2022-11-20T13:16:15;38.30;;;18.57;;
12660;SDS011;39039;51.802;5.710;2022-11-20T13:18:45;44.70;;;20.73;;
12660;SDS011;39039;51.802;5.710;2022-11-20T13:21:16;40.67;;;19.23;;
12660;SDS011;39039;51.802;5.710;2022-11-20T13:23:43;40.07;;;19.20;;
12660;SDS011;39039;51.802;5.710;2022-11-20T13:26:17;36.17;;;18.27;;
12660;SDS011;39039;51.802;5.710;2022-11-20T13:28:46;48.17;;;20.77;;
12660;SDS011;39039;51.802;5.710;2022-11-20T13:31:25;35.90;;;17.73;;
12660;SDS011;39039;51.802;5.710;2022-11-20T13:33:56;31.30;;;16.80;;
12660;SDS011;39039;51.802;5.710;2022-11-20T13:36:25;39.27;;;18.83;;
12660;SDS011;39039;51.802;5.710;2022-11-20T13:38:53;36.33;;;18.03;;
12660;SDS011;39039;51.802;5.710;2022-11-20T13:41:23;37.77;;;17.57;;
12660;SDS011;39039;51.802;5.710;2022-11-20T13:43:59;30.40;;;15.53;;
12660;SDS011;39039;51.802;5.710;2022-11-20T13:46:34;34.93;;;17.07;;
12660;SDS011;39039;51.802;5.710;2022-11-20T13:49:07;35.57;;;17.23;;
12660;SDS011;39039;51.802;5.710;2022-11-20T13:51:37;36.53;;;17.57;;
12660;SDS011;39039;51.802;5.710;2022-11-20T13:57:21;37.73;;;17.87;;
12660;SDS011;39039;51.802;5.710;2022-11-20T13:59:53;40.40;;;19.17;;
12660;SDS011;39039;51.802;5.710;2022-11-20T14:02:26;39.43;;;19.17;;
12660;SDS011;39039;51.802;5.710;2022-11-20T14:04:56;36.67;;;18.43;;
12660;SDS011;39039;51.802;5.710;2022-11-20T14:07:25;36.17;;;18.33;;
12660;SDS011;39039;51.802;5.710;2022-11-20T14:09:58;41.53;;;19.17;;
12660;SDS011;39039;51.802;5.710;2022-11-20T14:12:27;42.77;;;18.40;;
12660;SDS011;39039;51.802;5.710;2022-11-20T14:14:54;40.07;;;18.73;;
12660;SDS011;39039;51.802;5.710;2022-11-20T14:17:22;42.93;;;20.13;;
12660;SDS011;39039;51.802;5.710;2022-11-20T14:19:50;38.13;;;18.33;;
12660;SDS011;39039;51.802;5.710;2022-11-20T14:22:20;44.77;;;20.17;;
12660;SDS011;39039;51.802;5.710;2022-11-20T14:24:48;42.17;;;20.27;;
12660;SDS011;39039;51.802;5.710;2022-11-20T14:27:16;41.77;;;20.27;;
12660;SDS011;39039;51.802;5.710;2022-11-20T14:29:44;43.13;;;20.37;;
12660;SDS011;39039;51.802;5.710;2022-11-20T14:32:14;49.63;;;20.27;;
12660;SDS011;39039;51.802;5.710;2022-11-20T14:34:43;50.33;;;22.77;;
12660;SDS011;39039;51.802;5.710;2022-11-20T14:37:11;47.93;;;21.07;;
12660;SDS011;39039;51.802;5.710;2022-11-20T14:39:42;56.57;;;23.13;;
12660;SDS011;39039;51.802;5.710;2022-11-20T14:42:14;53.53;;;22.93;;